sensor_id;sensor_type;location;lat;lon;timestamp;P1;durP1;ratioP1;P2;durP2;ratioP2
43552;SDS011;29153;42.696;23.218;2023-12-28T09:30:56;34.13;;;19.23;;
43552;SDS011;29153;42.696;23.218;2023-12-28T09:33:24;39.40;;;20.20;;
43552;SDS011;29153;42.696;23.218;2023-12-28T09:35:51;34.45;;;21.02;;
43552;SDS011;29153;42.696;23.218;2023-12-28T09:38:22;30.77;;;17.17;;
43552;SDS011;29153;42.696;23.218;2023-12-28T09:40:52;37.58;;;18.92;;
43552;SDS011;29153;42.696;23.218;2023-12-28T09:45:55;33.10;;;16.42;;
43552;SDS011;29153;42.696;23.218;2023-12-28T09:48:22;28.17;;;15.10;;
43552;SDS011;29153;42.696;23.218;2023-12-28T09:50:53;33.15;;;17.62;;
43552;SDS011;29153;42.696;23.218;2023-12-28T09:53:23;35.43;;;21.90;;
43552;SDS011;29153;42.696;23.218;2023-12-28T09:55:51;31.65;;;16.75;;
43552;SDS011;29153;42.696;23.218;2023-12-28T09:58:20;31.05;;;18.25;;
43552;SDS011;29153;42.696;23.218;2023-12-28T10:03:16;38.00;;;22.30;;
43552;SDS011;29153;42.696;23.218;2023-12-28T10:05:44;40.10;;;23.62;;
43552;SDS011;29153;42.696;23.218;2023-12-28T10:08:13;44.42;;;25.12;;
43552;SDS011;29153;42.696;23.218;2023-12-28T10:10:42;44.53;;;22.52;;
43552;SDS011;29153;42.696;23.218;2023-12-28T10:13:12;51.92;;;26.82;;
43552;SDS011;29153;42.696;23.218;2023-12-28T10:15:41;39.73;;;21.77;;
43552;SDS011;29153;42.696;23.218;2023-12-28T10:18:09;44.67;;;23.38;;
43552;SDS011;29153;42.696;23.218;2023-12-28T10:20:37;47.88;;;25.17;;
43552;SDS011;29153;42.696;23.218;2023-12-28T10:23:05;46.58;;;24.35;;
43552;SDS011;29153;42.696;23.218;2023-12-28T10:25:33;52.45;;;25.30;;
43552;SDS011;29153;42.696;23.218;2023-12-28T10:28:03;48.80;;;27.50;;
43552;SDS011;29153;42.696;23.218;2023-12-28T10:30:32;47.15;;;25.10;;
43552;SDS011;29153;42.696;23.218;2023-12-28T10:33:00;47.08;;;26.15;;
43552;SDS011;29153;42.696;23.218;2023-12-28T10:35:28;46.77;;;26.33;;
43552;SDS011;29153;42.696;23.218;2023-12-28T10:37:56;51.70;;;27.40;;
43552;SDS011;29153;42.696;23.218;2023-12-28T10:40:30;48.73;;;27.42;;
43552;SDS011;29153;42.696;23.218;2023-12-28T10:42:58;58.08;;;29.35;;
43552;SDS011;29153;42.696;23.218;2023-12-28T10:45:32;57.67;;;29.48;;
43552;SDS011;29153;42.696;23.218;2023-12-28T10:48:04;56.25;;;30.25;;
43552;SDS011;29153;42.696;23.218;2023-12-28T10:50:38;67.30;;;30.72;;
43552;SDS011;29153;42.696;23.218;2023-12-28T10:56:12;56.02;;;32.48;;
43552;SDS011;29153;42.696;23.218;2023-12-28T11:01:17;56.68;;;30.02;;
43552;SDS011;29153;42.696;23.218;2023-12-28T11:03:47;61.83;;;30.70;;
43552;SDS011;29153;42.696;23.218;2023-12-28T11:06:16;60.45;;;29.15;;
43552;SDS011;29153;42.696;23.218;2023-12-28T11:08:44;57.55;;;29.02;;
43552;SDS011;29153;42.696;23.218;2023-12-28T11:11:15;51.10;;;27.25;;
43552;SDS011;29153;42.696;23.218;2023-12-28T11:13:43;55.78;;;30.70;;
43552;SDS011;29153;42.696;23.218;2023-12-28T11:16:11;53.92;;;28.77;;
43552;SDS011;29153;42.696;23.218;2023-12-28T11:18:40;58.23;;;32.42;;
43552;SDS011;29153;42.696;23.218;2023-12-28T11:21:09;50.30;;;28.20;;
43552;SDS011;29153;42.696;23.218;2023-12-28T11:23:37;52.50;;;26.93;;
43552;SDS011;29153;42.696;23.218;2023-12-28T11:26:15;51.63;;;25.52;;
43552;SDS011;29153;42.696;23.218;2023-12-28T11:28:44;52.00;;;26.85;;
43552;SDS011;29153;42.696;23.218;2023-12-28T11:31:15;50.48;;;26.90;;
43552;SDS011;29153;42.696;23.218;2023-12-28T11:33:44;49.58;;;28.00;;
43552;SDS011;29153;42.696;23.218;2023-12-28T11:36:21;61.45;;;29.15;;
43552;SDS011;29153;42.696;23.218;2023-12-28T11:38:50;65.28;;;31.25;;
43552;SDS011;29153;42.696;23.218;2023-12-28T11:41:20;62.95;;;29.57;;
43552;SDS011;29153;42.696;23.218;2023-12-28T11:43:54;52.70;;;25.80;;
43552;SDS011;29153;42.696;23.218;2023-12-28T11:46:21;56.00;;;28.00;;
43552;SDS011;29153;42.696;23.218;2023-12-28T11:48:50;50.30;;;25.80;;
43552;SDS011;29153;42.696;23.218;2023-12-28T11:51:18;54.98;;;27.70;;
43552;SDS011;29153;42.696;23.218;2023-12-28T11:53:46;53.75;;;27.82;;
43552;SDS011;29153;42.696;23.218;2023-12-28T11:56:15;54.83;;;27.17;;
43552;SDS011;29153;42.696;23.218;2023-12-28T11:58:43;49.85;;;26.77;;
43552;SDS011;29153;42.696;23.218;2023-12-28T12:01:12;48.02;;;24.70;;
43552;SDS011;29153;42.696;23.218;2023-12-28T12:03:40;50.35;;;25.23;;
43552;SDS011;29153;42.696;23.218;2023-12-28T12:06:08;45.35;;;24.10;;
43552;SDS011;29153;42.696;23.218;2023-12-28T12:08:35;47.95;;;26.87;;
43552;SDS011;29153;42.696;23.218;2023-12-28T12:11:06;47.20;;;26.33;;
43552;SDS011;29153;42.696;23.218;2023-12-28T12:13:34;44.98;;;27.05;;
43552;SDS011;29153;42.696;23.218;2023-12-28T12:16:02;47.05;;;24.30;;
43552;SDS011;29153;42.696;23.218;2023-12-28T12:18:36;46.70;;;23.98;;
43552;SDS011;29153;42.696;23.218;2023-12-28T12:21:01;42.17;;;23.40;;
43552;SDS011;29153;42.696;23.218;2023-12-28T12:25:56;45.00;;;23.27;;
43552;SDS011;29153;42.696;23.218;2023-12-28T12:28:24;47.50;;;24.50;;
43552;SDS011;29153;42.696;23.218;2023-12-28T12:30:55;44.00;;;23.90;;
43552;SDS011;29153;42.696;23.218;2023-12-28T12:33:23;49.03;;;28.20;;
43552;SDS011;29153;42.696;23.218;2023-12-28T12:35:52;42.13;;;23.57;;
43552;SDS011;29153;42.696;23.218;2023-12-28T12:38:20;44.98;;;23.32;;
43552;SDS011;29153;42.696;23.218;2023-12-28T12:40:50;39.25;;;20.88;;
43552;SDS011;29153;42.696;23.218;2023-12-28T12:43:18;37.10;;;19.25;;
43552;SDS011;29153;42.696;23.218;2023-12-28T12:45:46;31.42;;;17.67;;
43552;SDS011;29153;42.696;23.218;2023-12-28T12:48:14;32.40;;;17.42;;
43552;SDS011;29153;42.696;23.218;2023-12-28T12:50:42;30.65;;;14.70;;
43552;SDS011;29153;42.696;23.218;2023-12-28T12:53:10;32.42;;;16.07;;
43552;SDS011;29153;42.696;23.218;2023-12-28T12:55:38;39.18;;;20.80;;
43552;SDS011;29153;42.696;23.218;2023-12-28T12:58:14;36.13;;;19.98;;
43552;SDS011;29153;42.696;23.218;2023-12-28T13:00:39;37.95;;;18.02;;
43552;SDS011;29153;42.696;23.218;2023-12-28T13:03:10;37.50;;;19.80;;
43552;SDS011;29153;42.696;23.218;2023-12-28T13:05:37;42.60;;;21.02;;
43552;SDS011;29153;42.696;23.218;2023-12-28T13:08:07;38.85;;;20.20;;
43552;SDS011;29153;42.696;23.218;2023-12-28T13:10:34;42.95;;;24.07;;
43552;SDS011;29153;42.696;23.218;2023-12-28T13:13:02;39.92;;;19.12;;
43552;SDS011;29153;42.696;23.218;2023-12-28T13:15:32;40.10;;;20.25;;
43552;SDS011;29153;42.696;23.218;2023-12-28T13:18:00;34.70;;;17.90;;
43552;SDS011;29153;42.696;23.218;2023-12-28T13:20:28;27.87;;;15.03;;
43552;SDS011;29153;42.696;23.218;2023-12-28T13:22:55;32.85;;;17.92;;
43552;SDS011;29153;42.696;23.218;2023-12-28T13:25:23;28.23;;;14.87;;
43552;SDS011;29153;42.696;23.218;2023-12-28T13:27:51;32.80;;;15.90;;
43552;SDS011;29153;42.696;23.218;2023-12-28T13:30:18;28.98;;;15.68;;
43552;SDS011;29153;42.696;23.218;2023-12-28T13:32:47;32.90;;;15.10;;
43552;SDS011;29153;42.696;23.218;2023-12-28T13:35:15;35.10;;;13.95;;
43552;SDS011;29153;42.696;23.218;2023-12-28T13:37:43;27.90;;;14.20;;
43552;SDS011;29153;42.696;23.218;2023-12-28T13:40:11;33.20;;;15.15;;
43552;SDS011;29153;42.696;23.218;2023-12-28T13:42:38;25.65;;;13.13;;
43552;SDS011;29153;42.696;23.218;2023-12-28T13:45:06;28.35;;;13.48;;
43552;SDS011;29153;42.696;23.218;2023-12-28T13:47:34;31.45;;;15.28;;
43552;SDS011;29153;42.696;23.218;2023-12-28T13:50:02;30.37;;;16.15;;
43552;SDS011;29153;42.696;23.218;2023-12-28T13:52:30;29.18;;;15.03;;
43552;SDS011;29153;42.696;23.218;2023-12-28T13:54:57;32.65;;;16.75;;
43552;SDS011;29153;42.696;23.218;2023-12-28T13:57:25;31.52;;;16.55;;
43552;SDS011;29153;42.696;23.218;2023-12-28T13:59:53;28.70;;;16.32;;
43552;SDS011;29153;42.696;23.218;2023-12-28T14:02:22;33.02;;;17.30;;
43552;SDS011;29153;42.696;23.218;2023-12-28T14:04:49;30.32;;;16.20;;
43552;SDS011;29153;42.696;23.218;2023-12-28T14:07:17;33.88;;;18.55;;
43552;SDS011;29153;42.696;23.218;2023-12-28T14:09:45;33.58;;;15.93;;
43552;SDS011;29153;42.696;23.218;2023-12-28T14:12:12;33.28;;;17.02;;
43552;SDS011;29153;42.696;23.218;2023-12-28T14:14:40;30.77;;;15.78;;
43552;SDS011;29153;42.696;23.218;2023-12-28T14:17:08;30.35;;;15.60;;
43552;SDS011;29153;42.696;23.218;2023-12-28T14:19:35;32.60;;;17.40;;
43552;SDS011;29153;42.696;23.218;2023-12-28T14:22:03;28.70;;;15.60;;
43552;SDS011;29153;42.696;23.218;2023-12-28T14:24:31;32.73;;;16.07;;
43552;SDS011;29153;42.696;23.218;2023-12-28T14:26:59;35.17;;;17.77;;
43552;SDS011;29153;42.696;23.218;2023-12-28T14:29:27;37.05;;;17.17;;
43552;SDS011;29153;42.696;23.218;2023-12-28T14:31:55;33.40;;;17.92;;
43552;SDS011;29153;42.696;23.218;2023-12-28T14:34:23;30.20;;;16.82;;
43552;SDS011;29153;42.696;23.218;2023-12-28T14:36:52;31.25;;;17.27;;
43552;SDS011;29153;42.696;23.218;2023-12-28T14:39:20;31.23;;;15.30;;
43552;SDS011;29153;42.696;23.218;2023-12-28T14:41:47;32.65;;;15.08;;
43552;SDS011;29153;42.696;23.218;2023-12-28T14:44:15;33.83;;;16.60;;
43552;SDS011;29153;42.696;23.218;2023-12-28T14:46:43;31.10;;;17.25;;
43552;SDS011;29153;42.696;23.218;2023-12-28T14:49:10;35.03;;;16.90;;
43552;SDS011;29153;42.696;23.218;2023-12-28T14:51:38;28.60;;;15.15;;
43552;SDS011;29153;42.696;23.218;2023-12-28T14:54:05;29.92;;;16.80;;
43552;SDS011;29153;42.696;23.218;2023-12-28T14:56:33;26.82;;;15.55;;
43552;SDS011;29153;42.696;23.218;2023-12-28T14:59:01;30.40;;;17.02;;
43552;SDS011;29153;42.696;23.218;2023-12-28T15:01:28;29.57;;;16.85;;
43552;SDS011;29153;42.696;23.218;2023-12-28T15:03:56;30.45;;;16.65;;
43552;SDS011;29153;42.696;23.218;2023-12-28T15:06:24;28.32;;;15.23;;
43552;SDS011;29153;42.696;23.218;2023-12-28T15:08:52;28.57;;;16.57;;
43552;SDS011;29153;42.696;23.218;2023-12-28T15:11:20;32.50;;;17.02;;
43552;SDS011;29153;42.696;23.218;2023-12-28T15:13:48;29.82;;;14.45;;
43552;SDS011;29153;42.696;23.218;2023-12-28T15:16:16;28.80;;;15.10;;
43552;SDS011;29153;42.696;23.218;2023-12-28T15:18:44;30.00;;;14.55;;
43552;SDS011;29153;42.696;23.218;2023-12-28T15:21:12;28.07;;;14.18;;
43552;SDS011;29153;42.696;23.218;2023-12-28T15:23:40;28.67;;;13.65;;
43552;SDS011;29153;42.696;23.218;2023-12-28T15:26:07;27.40;;;15.55;;
43552;SDS011;29153;42.696;23.218;2023-12-28T15:28:35;29.55;;;14.13;;
43552;SDS011;29153;42.696;23.218;2023-12-28T15:31:03;29.72;;;15.13;;
43552;SDS011;29153;42.696;23.218;2023-12-28T15:33:30;24.95;;;13.83;;
43552;SDS011;29153;42.696;23.218;2023-12-28T15:35:58;27.62;;;14.35;;
43552;SDS011;29153;42.696;23.218;2023-12-28T15:38:26;27.90;;;13.78;;
43552;SDS011;29153;42.696;23.218;2023-12-28T15:40:54;25.60;;;13.18;;
43552;SDS011;29153;42.696;23.218;2023-12-28T15:43:22;27.62;;;14.13;;
43552;SDS011;29153;42.696;23.218;2023-12-28T15:45:50;29.15;;;15.58;;
43552;SDS011;29153;42.696;23.218;2023-12-28T15:48:18;41.15;;;17.82;;
43552;SDS011;29153;42.696;23.218;2023-12-28T15:50:46;23.30;;;11.88;;
43552;SDS011;29153;42.696;23.218;2023-12-28T15:53:13;28.90;;;13.65;;
43552;SDS011;29153;42.696;23.218;2023-12-28T15:55:41;23.27;;;10.88;;
43552;SDS011;29153;42.696;23.218;2023-12-28T15:58:09;22.45;;;11.33;;
43552;SDS011;29153;42.696;23.218;2023-12-28T16:00:36;23.27;;;11.78;;
43552;SDS011;29153;42.696;23.218;2023-12-28T16:03:04;20.55;;;10.05;;
43552;SDS011;29153;42.696;23.218;2023-12-28T16:05:32;17.50;;;9.00;;
43552;SDS011;29153;42.696;23.218;2023-12-28T16:07:59;19.17;;;8.83;;
43552;SDS011;29153;42.696;23.218;2023-12-28T16:10:27;15.50;;;7.95;;
43552;SDS011;29153;42.696;23.218;2023-12-28T16:12:54;17.75;;;8.55;;
43552;SDS011;29153;42.696;23.218;2023-12-28T16:15:22;17.87;;;9.43;;
43552;SDS011;29153;42.696;23.218;2023-12-28T16:17:50;16.17;;;8.58;;
43552;SDS011;29153;42.696;23.218;2023-12-28T16:20:20;16.77;;;8.20;;
43552;SDS011;29153;42.696;23.218;2023-12-28T16:22:48;14.15;;;7.40;;
43552;SDS011;29153;42.696;23.218;2023-12-28T16:25:16;14.68;;;7.90;;
43552;SDS011;29153;42.696;23.218;2023-12-28T16:27:44;13.50;;;7.30;;
43552;SDS011;29153;42.696;23.218;2023-12-28T16:30:11;17.10;;;7.85;;
43552;SDS011;29153;42.696;23.218;2023-12-28T16:32:39;14.18;;;7.95;;
43552;SDS011;29153;42.696;23.218;2023-12-28T16:35:08;18.07;;;7.70;;
43552;SDS011;29153;42.696;23.218;2023-12-28T16:37:37;18.30;;;9.33;;
43552;SDS011;29153;42.696;23.218;2023-12-28T16:40:05;15.55;;;7.75;;
43552;SDS011;29153;42.696;23.218;2023-12-28T16:42:33;29.70;;;14.15;;
43552;SDS011;29153;42.696;23.218;2023-12-28T16:45:01;21.60;;;9.78;;
43552;SDS011;29153;42.696;23.218;2023-12-28T16:47:29;23.73;;;12.63;;
43552;SDS011;29153;42.696;23.218;2023-12-28T16:49:58;19.73;;;8.78;;
43552;SDS011;29153;42.696;23.218;2023-12-28T16:52:26;22.17;;;11.45;;
43552;SDS011;29153;42.696;23.218;2023-12-28T16:54:53;23.20;;;12.37;;
43552;SDS011;29153;42.696;23.218;2023-12-28T16:57:21;20.57;;;10.32;;
43552;SDS011;29153;42.696;23.218;2023-12-28T16:59:51;18.00;;;9.95;;
43552;SDS011;29153;42.696;23.218;2023-12-28T17:02:19;17.70;;;8.58;;
43552;SDS011;29153;42.696;23.218;2023-12-28T17:09:44;19.32;;;9.75;;
43552;SDS011;29153;42.696;23.218;2023-12-28T17:12:13;19.07;;;8.85;;
43552;SDS011;29153;42.696;23.218;2023-12-28T17:14:46;20.52;;;10.65;;
43552;SDS011;29153;42.696;23.218;2023-12-28T17:17:14;23.77;;;11.15;;
43552;SDS011;29153;42.696;23.218;2023-12-28T17:19:42;28.87;;;12.70;;
43552;SDS011;29153;42.696;23.218;2023-12-28T17:22:10;27.17;;;13.38;;
43552;SDS011;29153;42.696;23.218;2023-12-28T17:24:47;29.20;;;14.68;;
43552;SDS011;29153;42.696;23.218;2023-12-28T17:27:33;36.48;;;15.72;;
43552;SDS011;29153;42.696;23.218;2023-12-28T17:29:59;60.35;;;23.12;;
43552;SDS011;29153;42.696;23.218;2023-12-28T17:32:31;39.90;;;17.48;;
43552;SDS011;29153;42.696;23.218;2023-12-28T17:35:02;40.33;;;18.62;;
43552;SDS011;29153;42.696;23.218;2023-12-28T17:37:30;36.30;;;18.45;;
43552;SDS011;29153;42.696;23.218;2023-12-28T17:39:58;32.50;;;16.48;;
43552;SDS011;29153;42.696;23.218;2023-12-28T17:42:29;32.00;;;16.07;;
43552;SDS011;29153;42.696;23.218;2023-12-28T17:44:57;32.88;;;16.15;;
43552;SDS011;29153;42.696;23.218;2023-12-28T17:47:28;26.05;;;14.47;;
43552;SDS011;29153;42.696;23.218;2023-12-28T17:49:57;34.18;;;17.50;;
43552;SDS011;29153;42.696;23.218;2023-12-28T17:52:26;35.65;;;17.02;;
43552;SDS011;29153;42.696;23.218;2023-12-28T17:54:55;32.50;;;16.82;;
43552;SDS011;29153;42.696;23.218;2023-12-28T17:57:24;34.50;;;16.45;;
43552;SDS011;29153;42.696;23.218;2023-12-28T17:59:51;45.60;;;20.05;;
43552;SDS011;29153;42.696;23.218;2023-12-28T18:02:19;37.40;;;16.30;;
43552;SDS011;29153;42.696;23.218;2023-12-28T18:04:47;28.80;;;15.88;;
43552;SDS011;29153;42.696;23.218;2023-12-28T18:07:15;34.67;;;17.50;;
43552;SDS011;29153;42.696;23.218;2023-12-28T18:09:42;33.80;;;16.60;;
43552;SDS011;29153;42.696;23.218;2023-12-28T18:12:10;32.63;;;15.60;;
43552;SDS011;29153;42.696;23.218;2023-12-28T18:14:37;30.90;;;16.20;;
43552;SDS011;29153;42.696;23.218;2023-12-28T18:17:05;31.55;;;15.80;;
43552;SDS011;29153;42.696;23.218;2023-12-28T18:19:33;43.65;;;17.98;;
43552;SDS011;29153;42.696;23.218;2023-12-28T18:22:00;45.35;;;19.20;;
43552;SDS011;29153;42.696;23.218;2023-12-28T18:24:29;32.70;;;16.37;;
43552;SDS011;29153;42.696;23.218;2023-12-28T18:26:57;34.43;;;17.77;;
43552;SDS011;29153;42.696;23.218;2023-12-28T18:29:24;31.33;;;18.30;;
43552;SDS011;29153;42.696;23.218;2023-12-28T18:31:52;34.43;;;16.12;;
43552;SDS011;29153;42.696;23.218;2023-12-28T18:34:20;29.82;;;16.67;;
43552;SDS011;29153;42.696;23.218;2023-12-28T18:36:47;34.20;;;17.52;;
43552;SDS011;29153;42.696;23.218;2023-12-28T18:39:17;35.73;;;18.23;;
43552;SDS011;29153;42.696;23.218;2023-12-28T18:41:46;40.83;;;19.55;;
43552;SDS011;29153;42.696;23.218;2023-12-28T18:44:14;45.30;;;19.42;;
43552;SDS011;29153;42.696;23.218;2023-12-28T18:46:41;31.87;;;18.12;;
43552;SDS011;29153;42.696;23.218;2023-12-28T18:49:10;34.45;;;16.75;;
43552;SDS011;29153;42.696;23.218;2023-12-28T18:51:38;39.20;;;18.40;;
43552;SDS011;29153;42.696;23.218;2023-12-28T18:54:05;35.55;;;16.75;;
43552;SDS011;29153;42.696;23.218;2023-12-28T18:56:33;32.42;;;16.05;;
43552;SDS011;29153;42.696;23.218;2023-12-28T18:59:02;34.48;;;18.10;;
43552;SDS011;29153;42.696;23.218;2023-12-28T19:01:29;32.98;;;17.55;;
43552;SDS011;29153;42.696;23.218;2023-12-28T19:03:57;29.00;;;15.13;;
43552;SDS011;29153;42.696;23.218;2023-12-28T19:06:25;31.55;;;16.90;;
43552;SDS011;29153;42.696;23.218;2023-12-28T19:08:52;29.02;;;13.95;;
43552;SDS011;29153;42.696;23.218;2023-12-28T19:11:20;31.10;;;15.85;;
43552;SDS011;29153;42.696;23.218;2023-12-28T19:13:47;28.17;;;15.23;;
43552;SDS011;29153;42.696;23.218;2023-12-28T19:16:19;26.33;;;13.25;;
43552;SDS011;29153;42.696;23.218;2023-12-28T19:18:48;25.80;;;13.83;;
43552;SDS011;29153;42.696;23.218;2023-12-28T19:21:17;27.42;;;13.65;;
43552;SDS011;29153;42.696;23.218;2023-12-28T19:23:46;28.38;;;14.63;;
43552;SDS011;29153;42.696;23.218;2023-12-28T19:26:14;27.35;;;13.70;;
43552;SDS011;29153;42.696;23.218;2023-12-28T19:28:44;24.98;;;13.35;;
43552;SDS011;29153;42.696;23.218;2023-12-28T19:31:12;26.37;;;13.40;;
43552;SDS011;29153;42.696;23.218;2023-12-28T19:33:40;29.07;;;13.48;;
43552;SDS011;29153;42.696;23.218;2023-12-28T19:36:08;25.20;;;13.22;;
43552;SDS011;29153;42.696;23.218;2023-12-28T19:38:36;24.55;;;13.53;;
43552;SDS011;29153;42.696;23.218;2023-12-28T19:41:04;26.45;;;13.65;;
43552;SDS011;29153;42.696;23.218;2023-12-28T19:43:31;27.73;;;13.10;;
43552;SDS011;29153;42.696;23.218;2023-12-28T19:45:59;25.77;;;13.22;;
43552;SDS011;29153;42.696;23.218;2023-12-28T19:48:27;25.90;;;13.40;;
43552;SDS011;29153;42.696;23.218;2023-12-28T19:50:54;25.95;;;12.88;;
43552;SDS011;29153;42.696;23.218;2023-12-28T19:53:22;24.32;;;12.73;;
43552;SDS011;29153;42.696;23.218;2023-12-28T19:55:50;29.48;;;13.93;;
43552;SDS011;29153;42.696;23.218;2023-12-28T19:58:18;33.78;;;14.07;;
43552;SDS011;29153;42.696;23.218;2023-12-28T20:00:46;27.93;;;13.78;;
43552;SDS011;29153;42.696;23.218;2023-12-28T20:03:13;28.50;;;15.88;;
43552;SDS011;29153;42.696;23.218;2023-12-28T20:05:42;27.82;;;14.00;;
43552;SDS011;29153;42.696;23.218;2023-12-28T20:08:10;29.32;;;15.23;;
43552;SDS011;29153;42.696;23.218;2023-12-28T20:10:38;25.97;;;14.50;;
43552;SDS011;29153;42.696;23.218;2023-12-28T20:13:05;30.35;;;14.87;;
43552;SDS011;29153;42.696;23.218;2023-12-28T20:15:33;29.50;;;13.78;;
43552;SDS011;29153;42.696;23.218;2023-12-28T20:18:01;29.07;;;14.58;;
43552;SDS011;29153;42.696;23.218;2023-12-28T20:20:29;31.40;;;13.78;;
43552;SDS011;29153;42.696;23.218;2023-12-28T20:22:57;27.93;;;13.58;;
43552;SDS011;29153;42.696;23.218;2023-12-28T20:25:25;29.00;;;14.40;;
43552;SDS011;29153;42.696;23.218;2023-12-28T20:27:55;27.30;;;13.68;;
43552;SDS011;29153;42.696;23.218;2023-12-28T20:30:24;32.83;;;14.63;;
43552;SDS011;29153;42.696;23.218;2023-12-28T20:32:53;27.13;;;15.28;;
43552;SDS011;29153;42.696;23.218;2023-12-28T20:35:21;25.80;;;14.20;;
43552;SDS011;29153;42.696;23.218;2023-12-28T20:37:48;26.65;;;13.03;;
43552;SDS011;29153;42.696;23.218;2023-12-28T20:40:16;26.00;;;14.50;;
43552;SDS011;29153;42.696;23.218;2023-12-28T20:42:44;28.38;;;14.58;;
43552;SDS011;29153;42.696;23.218;2023-12-28T20:45:11;30.25;;;16.15;;
43552;SDS011;29153;42.696;23.218;2023-12-28T20:47:39;29.48;;;14.80;;
43552;SDS011;29153;42.696;23.218;2023-12-28T20:50:07;33.33;;;14.50;;
43552;SDS011;29153;42.696;23.218;2023-12-28T20:52:35;27.40;;;13.75;;
43552;SDS011;29153;42.696;23.218;2023-12-28T20:55:03;30.32;;;14.18;;
43552;SDS011;29153;42.696;23.218;2023-12-28T20:57:31;27.52;;;13.93;;
43552;SDS011;29153;42.696;23.218;2023-12-28T20:59:59;32.55;;;14.28;;
43552;SDS011;29153;42.696;23.218;2023-12-28T21:02:26;26.93;;;13.68;;
43552;SDS011;29153;42.696;23.218;2023-12-28T21:04:54;31.75;;;13.98;;
43552;SDS011;29153;42.696;23.218;2023-12-28T21:07:22;29.18;;;13.80;;
43552;SDS011;29153;42.696;23.218;2023-12-28T21:09:50;30.23;;;14.60;;
43552;SDS011;29153;42.696;23.218;2023-12-28T21:12:18;30.65;;;13.78;;
43552;SDS011;29153;42.696;23.218;2023-12-28T21:14:47;25.40;;;13.20;;
43552;SDS011;29153;42.696;23.218;2023-12-28T21:17:16;30.45;;;14.83;;
43552;SDS011;29153;42.696;23.218;2023-12-28T21:19:43;26.93;;;12.88;;
43552;SDS011;29153;42.696;23.218;2023-12-28T21:22:11;26.50;;;13.45;;
43552;SDS011;29153;42.696;23.218;2023-12-28T21:24:39;27.20;;;13.85;;
43552;SDS011;29153;42.696;23.218;2023-12-28T21:27:06;29.25;;;14.07;;
43552;SDS011;29153;42.696;23.218;2023-12-28T21:29:37;23.98;;;12.35;;
43552;SDS011;29153;42.696;23.218;2023-12-28T21:32:05;27.17;;;13.70;;
43552;SDS011;29153;42.696;23.218;2023-12-28T21:34:33;27.02;;;13.93;;
43552;SDS011;29153;42.696;23.218;2023-12-28T21:37:03;29.85;;;13.88;;
43552;SDS011;29153;42.696;23.218;2023-12-28T21:39:30;30.65;;;13.62;;
43552;SDS011;29153;42.696;23.218;2023-12-28T21:41:59;29.15;;;15.08;;
43552;SDS011;29153;42.696;23.218;2023-12-28T21:44:28;30.48;;;14.83;;
43552;SDS011;29153;42.696;23.218;2023-12-28T21:46:56;27.22;;;13.75;;
43552;SDS011;29153;42.696;23.218;2023-12-28T21:49:24;29.42;;;14.33;;
43552;SDS011;29153;42.696;23.218;2023-12-28T21:51:52;28.67;;;14.98;;
43552;SDS011;29153;42.696;23.218;2023-12-28T21:54:19;32.35;;;15.25;;
43552;SDS011;29153;42.696;23.218;2023-12-28T21:56:47;24.90;;;13.95;;
43552;SDS011;29153;42.696;23.218;2023-12-28T21:59:14;27.67;;;13.38;;
43552;SDS011;29153;42.696;23.218;2023-12-28T22:01:44;30.17;;;14.33;;
43552;SDS011;29153;42.696;23.218;2023-12-28T22:04:11;27.87;;;14.18;;
43552;SDS011;29153;42.696;23.218;2023-12-28T22:06:39;26.80;;;14.30;;
43552;SDS011;29153;42.696;23.218;2023-12-28T22:09:08;31.00;;;15.83;;
43552;SDS011;29153;42.696;23.218;2023-12-28T22:11:36;27.75;;;13.55;;
43552;SDS011;29153;42.696;23.218;2023-12-28T22:14:04;28.25;;;14.80;;
43552;SDS011;29153;42.696;23.218;2023-12-28T22:16:32;29.25;;;14.20;;
43552;SDS011;29153;42.696;23.218;2023-12-28T22:18:59;25.72;;;13.38;;
43552;SDS011;29153;42.696;23.218;2023-12-28T22:21:27;28.40;;;13.83;;
43552;SDS011;29153;42.696;23.218;2023-12-28T22:23:55;30.92;;;14.98;;
43552;SDS011;29153;42.696;23.218;2023-12-28T22:26:22;27.32;;;14.35;;
43552;SDS011;29153;42.696;23.218;2023-12-28T22:28:50;25.50;;;13.98;;
43552;SDS011;29153;42.696;23.218;2023-12-28T22:31:17;26.97;;;13.72;;
43552;SDS011;29153;42.696;23.218;2023-12-28T22:33:47;29.35;;;14.85;;
43552;SDS011;29153;42.696;23.218;2023-12-28T22:36:15;25.37;;;12.15;;
43552;SDS011;29153;42.696;23.218;2023-12-28T22:38:43;28.20;;;11.83;;
43552;SDS011;29153;42.696;23.218;2023-12-28T22:41:10;22.80;;;12.23;;
43552;SDS011;29153;42.696;23.218;2023-12-28T22:43:38;27.15;;;12.75;;
43552;SDS011;29153;42.696;23.218;2023-12-28T22:46:06;25.52;;;12.20;;
43552;SDS011;29153;42.696;23.218;2023-12-28T22:48:40;23.12;;;12.33;;
43552;SDS011;29153;42.696;23.218;2023-12-28T22:51:08;25.92;;;11.80;;
43552;SDS011;29153;42.696;23.218;2023-12-28T22:53:36;25.92;;;12.10;;
43552;SDS011;29153;42.696;23.218;2023-12-28T22:56:04;22.90;;;11.75;;
43552;SDS011;29153;42.696;23.218;2023-12-28T22:58:32;22.65;;;11.22;;
43552;SDS011;29153;42.696;23.218;2023-12-28T23:01:00;23.90;;;11.45;;
43552;SDS011;29153;42.696;23.218;2023-12-28T23:03:28;25.20;;;13.20;;
43552;SDS011;29153;42.696;23.218;2023-12-28T23:05:56;25.20;;;12.03;;
43552;SDS011;29153;42.696;23.218;2023-12-28T23:08:25;23.30;;;12.25;;
43552;SDS011;29153;42.696;23.218;2023-12-28T23:10:53;28.40;;;15.50;;
43552;SDS011;29153;42.696;23.218;2023-12-28T23:13:22;24.40;;;12.68;;
43552;SDS011;29153;42.696;23.218;2023-12-28T23:15:50;24.35;;;13.30;;
43552;SDS011;29153;42.696;23.218;2023-12-28T23:18:17;26.37;;;11.35;;
43552;SDS011;29153;42.696;23.218;2023-12-28T23:20:45;21.00;;;11.15;;
43552;SDS011;29153;42.696;23.218;2023-12-28T23:23:13;20.25;;;11.03;;
43552;SDS011;29153;42.696;23.218;2023-12-28T23:25:40;24.47;;;10.48;;
43552;SDS011;29153;42.696;23.218;2023-12-28T23:28:08;23.15;;;10.60;;
43552;SDS011;29153;42.696;23.218;2023-12-28T23:30:36;19.85;;;11.05;;
43552;SDS011;29153;42.696;23.218;2023-12-28T23:33:04;23.30;;;10.80;;
43552;SDS011;29153;42.696;23.218;2023-12-28T23:35:31;22.80;;;10.95;;
43552;SDS011;29153;42.696;23.218;2023-12-28T23:37:59;20.25;;;10.45;;
43552;SDS011;29153;42.696;23.218;2023-12-28T23:40:27;23.32;;;10.82;;
43552;SDS011;29153;42.696;23.218;2023-12-28T23:42:55;20.88;;;10.32;;
43552;SDS011;29153;42.696;23.218;2023-12-28T23:45:22;20.92;;;9.73;;
43552;SDS011;29153;42.696;23.218;2023-12-28T23:47:50;17.95;;;9.45;;
43552;SDS011;29153;42.696;23.218;2023-12-28T23:50:17;21.17;;;11.03;;
43552;SDS011;29153;42.696;23.218;2023-12-28T23:52:45;19.75;;;9.40;;
43552;SDS011;29153;42.696;23.218;2023-12-28T23:55:13;19.57;;;9.63;;
43552;SDS011;29153;42.696;23.218;2023-12-28T23:57:41;21.15;;;9.48;;
